Latest Weather Observations for Charles Point

IDD60801

Issued at 9:51 am CST Monday 16 September 2019 (issued every 10 minutes, with the page automatically refreshed every 10 minutes)

About weather observations | Map of weather stations | Latest weather observations for NT | Other Formats
Station Details ID: 014031 Name: CHARLES POINT Lat: -12.39 Lon: 130.63 Height: 14.0 m
Data from the previous 72 hours. | See also: Recent months for locations in Northern Territory
Date/Time
CST
Temp
°C
App
Temp
°C
Dew
Point
°C
Rel
Hum
%
Delta-T
°C
Wind Press
QNH
hPa
Press
MSL
hPa
Rain since
9am
mm
Dir  Spd
km/h
Gust
km/h
Spd
kts
Gust
kts
16/09:30am 25.9 27.8 19.8 69 3.9 E 9 15 5 8 1016.6 1016.5 0.0
16/09:00am 25.6 27.8 20.4 73 3.4 E 9 15 5 8 1016.5 1016.4 0.0
16/08:30am 25.3 27.8 20.3 74 3.3 ESE 7 15 4 8 1016.4 1016.3 0.0
16/08:00am 23.7 25.7 18.8 74 3.1 SSE 6 7 3 4 1016.2 1016.1 0.0
16/07:30am 22.6 24.4 18.2 76 2.8 SSE 6 9 3 5 1016.0 1015.9 0.0
16/07:00am 22.0 23.4 17.8 77 2.6 SSE 7 11 4 6 1016.1 1016.0 0.0
16/06:30am 21.9 23.3 17.7 77 2.6 SSE 7 13 4 7 1015.9 1015.8 0.0
16/06:00am 21.7 22.8 17.9 79 2.4 S 9 13 5 7 1015.6 1015.5 0.0
16/05:30am 21.8 23.4 18.2 80 2.2 S 7 9 4 5 1015.5 1015.4 0.0
16/05:00am 21.9 23.5 18.3 80 2.3 S 7 9 4 5 1015.3 1015.2 0.0
16/04:30am 21.9 23.8 18.5 81 2.1 SSE 6 6 3 3 1015.1 1015.0 0.0
16/04:00am 22.1 24.1 18.7 81 2.1 S 6 9 3 5 1015.1 1015.0 0.0
16/03:30am 21.8 24.1 18.6 82 2.0 SSE 4 6 2 3 1015.0 1014.9 0.0
16/03:00am 21.6 24.2 18.4 82 2.0 S 2 4 1 2 1014.9 1014.8 0.0
16/02:30am 21.9 24.8 18.3 80 2.2 CALM 0 0 0 0 1014.8 1014.7 0.0
16/02:00am 22.3 25.2 18.3 78 2.5 CALM 0 0 0 0 1014.8 1014.7 0.0
16/01:30am 23.1 25.9 18.0 73 3.2 CALM 0 0 0 0 1014.8 1014.7 0.0
16/01:00am 25.1 27.1 19.2 70 3.8 N 7 9 4 5 1014.9 1014.8 0.0
16/12:30am 25.3 26.1 19.0 68 4.0 N 13 15 7 8 1015.0 1014.9 0.0
16/12:00am 25.4 26.4 18.6 66 4.3 N 11 15 6 8 1015.1 1015.0 0.0
 
Date/Time
CST
Temp
°C
App
Temp
°C
Dew
Point
°C
Rel
Hum
%
Delta-T
°C
Wind Press
QNH
hPa
Press
MSL
hPa
Rain since
9am
mm
Dir  Spd
km/h
Gust
km/h
Spd
kts
Gust
kts
15/11:30pm 25.5 26.8 19.2 68 4.0 NNE 11 15 6 8 1015.1 1015.0 0.0
15/11:00pm 25.6 26.0 19.0 67 4.2 NNE 15 20 8 11 1015.0 1014.9 0.0
15/10:30pm 25.6 23.8 18.8 66 4.3 N 26 32 14 17 1015.0 1014.9 0.0
15/10:00pm 26.2 24.7 17.8 60 5.3 NNE 22 30 12 16 1014.8 1014.7 0.0
15/09:30pm 26.5 25.6 17.8 58 5.5 NNE 19 28 10 15 1014.9 1014.8 0.0
15/09:00pm 26.4 25.6 18.5 62 5.0 NE 20 28 11 15 1014.7 1014.6 0.0
15/08:30pm 26.4 26.0 19.0 63 4.7 NE 19 26 10 14 1014.4 1014.3 0.0
15/08:00pm 26.5 25.3 18.4 61 5.2 ENE 22 33 12 18 1014.1 1014.0 0.0
15/07:30pm 26.4 26.2 19.3 65 4.6 ENE 19 28 10 15 1013.7 1013.6 0.0
15/07:00pm 26.4 25.8 18.8 63 4.9 NE 20 33 11 18 1013.4 1013.3 0.0
15/06:30pm 26.4 25.3 17.7 58 5.5 NE 20 33 11 18 1013.0 1012.9 0.0
15/06:00pm 26.5 26.2 19.1 64 4.8 NE 19 28 10 15 1012.8 1012.7 0.0
15/05:30pm 26.5 24.7 17.8 58 5.5 NE 24 35 13 19 1012.7 1012.6 0.0
15/05:00pm 26.6 24.0 17.9 59 5.5 NE 28 39 15 21 1012.7 1012.6 0.0
15/04:30pm 26.6 23.5 17.4 57 5.8 NE 30 41 16 22 1012.6 1012.5 0.0
15/04:00pm 26.7 23.6 18.3 60 5.3 NNE 32 41 17 22 1012.6 1012.5 0.0
15/03:30pm 26.8 23.6 18.1 59 5.5 NE 32 41 17 22 1012.7 1012.6 0.0
15/03:00pm 26.8 23.8 16.7 54 6.3 NE 28 39 15 21 1012.7 1012.6 0.0
15/02:30pm 26.7 23.7 16.9 55 6.1 NE 28 35 15 19 1012.9 1012.8 0.0
15/02:00pm 27.0 24.2 17.2 55 6.1 NE 28 39 15 21 1013.0 1012.9 0.0
15/01:30pm 31.3 28.8 13.6 34 10.7 E 19 30 10 16 1013.3 1013.2 0.0
15/01:00pm 31.8 28.6 9.9 26 12.5 E 17 28 9 15 1013.8 1013.7 0.0
15/12:30pm 31.0 28.1 10.9 29 11.6 E 17 30 9 16 1014.1 1014.0 0.0
15/12:00pm 30.3 27.1 9.8 28 11.6 E 17 28 9 15 1014.6 1014.5 0.0
15/11:30am 29.1 26.6 11.2 33 10.3 E 15 28 8 15 1015.3 1015.2 0.0
15/11:00am 28.7 25.9 11.3 34 10.0 E 17 28 9 15 1015.8 1015.7 0.0
15/10:30am 28.4 25.2 10.1 32 10.3 E 17 30 9 16 1016.2 1016.1 0.0
15/10:00am 28.0 24.6 11.1 35 9.6 ESE 20 39 11 21 1016.5 1016.4 0.0
15/09:30am 27.6 24.0 8.5 30 10.4 ESE 17 35 9 19 1016.7 1016.6 0.0
15/09:00am 26.8 26.3 13.9 45 7.6 ESE 9 19 5 10 1017.0 1016.9 0.0
15/08:30am 25.2 26.3 17.1 60 5.0 SE 7 13 4 7 1016.9 1016.8 0.0
15/08:00am 24.1 26.0 18.5 71 3.5 SE 6 11 3 6 1016.8 1016.7 0.0
15/07:30am 22.9 25.1 19.1 79 2.4 SE 6 9 3 5 1016.6 1016.5 0.0
15/07:00am 21.4 23.4 18.8 85 1.6 SE 6 7 3 4 1016.4 1016.3 0.0
15/06:30am 21.9 24.3 18.7 82 2.0 SE 4 7 2 4 1016.1 1016.0 0.0
15/06:00am 23.1 25.3 19.3 79 2.4 ESE 6 9 3 5 1015.9 1015.8 0.0
15/05:30am 23.9 25.9 19.2 75 3.0 ESE 7 13 4 7 1015.7 1015.6 0.0
15/05:00am 24.5 26.2 19.3 73 3.3 ESE 9 13 5 7 1015.5 1015.4 0.0
15/04:30am 23.6 25.7 18.9 75 3.0 ESE 6 9 3 5 1015.4 1015.3 0.0
15/04:00am 24.2 26.7 19.1 73 3.3 E 4 9 2 5 1015.1 1015.0 0.0
15/03:30am 24.0 25.9 18.9 73 3.2 ESE 7 13 4 7 1015.4 1015.3 0.0
15/03:00am 23.0 24.8 18.3 75 2.9 SE 6 9 3 5 1015.4 1015.3 0.0
15/02:30am 23.0 25.2 18.3 75 2.9 SE 4 6 2 3 1015.3 1015.2 0.0
15/02:00am 23.3 25.3 18.8 76 2.8 SE 6 6 3 3 1015.4 1015.3 0.0
15/01:30am 22.7 25.1 18.0 75 2.9 ESE 2 6 1 3 1015.6 1015.5 0.0
15/01:00am 22.6 24.9 17.7 74 3.0 ESE 2 7 1 4 1015.7 1015.6 0.0
15/12:30am 22.7 24.7 17.8 74 3.0 SSW 4 6 2 3 1015.5 1015.4 0.0
15/12:00am 23.0 25.3 17.7 72 3.3 WSW 2 4 1 2 1015.6 1015.5 0.0
 
Date/Time
CST
Temp
°C
App
Temp
°C
Dew
Point
°C
Rel
Hum
%
Delta-T
°C
Wind Press
QNH
hPa
Press
MSL
hPa
Rain since
9am
mm
Dir  Spd
km/h
Gust
km/h
Spd
kts
Gust
kts
14/11:30pm 24.0 25.8 17.5 67 4.0 SW 4 4 2 2 1015.7 1015.6 0.0
14/11:00pm 25.9 27.8 18.6 64 4.6 WNW 6 9 3 5 1015.4 1015.3 0.0
14/10:30pm 26.6 27.2 18.5 61 5.2 NNE 13 19 7 10 1015.0 1014.9 0.0
14/10:00pm 26.8 26.4 18.9 62 5.1 NNE 19 24 10 13 1015.0 1014.9 0.0
14/09:30pm 26.7 28.6 20.5 69 4.1 NE 11 15 6 8 1014.9 1014.8 0.0
14/09:00pm 26.6 28.6 20.0 67 4.3 ENE 9 13 5 7 1014.7 1014.6 0.0
14/08:30pm 26.7 28.2 18.8 62 5.1 ENE 9 15 5 8 1014.4 1014.3 0.0
14/08:00pm 26.9 28.3 18.7 60 5.2 ENE 9 17 5 9 1014.3 1014.2 0.0
14/07:30pm 27.1 26.7 18.1 58 5.7 NE 17 20 9 11 1013.9 1013.8 0.0
14/07:00pm 27.2 27.4 18.5 59 5.6 NE 15 20 8 11 1013.5 1013.4 0.0
14/06:30pm 27.4 26.5 17.8 55 6.1 NE 19 28 10 15 1013.3 1013.2 0.0
14/06:00pm 27.6 26.0 17.5 54 6.4 NNE 22 30 12 16 1013.1 1013.0 0.0
14/05:30pm 27.8 26.1 17.3 52 6.6 NNE 22 30 12 16 1013.0 1012.9 0.0
14/05:00pm 27.9 26.4 17.7 53 6.5 NNE 22 30 12 16 1013.0 1012.9 0.0
14/04:30pm 28.2 25.4 17.4 52 6.8 NNE 28 35 15 19 1012.9 1012.8 0.0
14/04:00pm 28.1 25.8 17.6 53 6.6 NNE 26 35 14 19 1012.9 1012.8 0.0
14/03:30pm 28.2 25.3 17.1 51 7.0 NNE 28 37 15 20 1013.0 1012.9 0.0
14/03:00pm 28.6 26.1 17.2 50 7.2 NNE 26 37 14 20 1013.2 1013.1 0.0
14/02:30pm 28.2 25.3 16.1 47 7.5 NE 26 37 14 20 1013.6 1013.5 0.0
14/02:00pm 28.4 26.0 16.3 47 7.5 NE 24 35 13 19 1014.2 1014.1 0.0
14/01:30pm 28.7 25.0 14.9 43 8.4 NE 28 37 15 20 1014.6 1014.5 0.0
14/01:00pm 28.7 25.1 14.1 40 8.8 NE 26 39 14 21 1015.2 1015.1 0.0
14/12:30pm 29.9 27.0 12.3 33 10.3 ENE 19 30 10 16 1015.8 1015.7 0.0
14/12:00pm 30.4 27.9 12.3 33 10.6 E 17 28 9 15 1016.3 1016.2 0.0
14/11:30am 29.5 25.7 11.1 32 10.6 ESE 22 35 12 19 1016.6 1016.5 0.0
14/11:03am 29.2 23.9 9.9 30 10.9 ESE 28 46 15 25 1017.0 1016.9 0.0
14/11:00am 29.3 24.4 9.9 30 10.9 ESE 26 46 14 25 1017.1 1017.0 0.0
14/10:30am 28.5 24.6 10.7 33 10.1 ESE 22 39 12 21 1017.5 1017.4 0.0
14/10:00am 27.7 24.6 11.7 37 9.2 ESE 19 30 10 16 1017.9 1017.8 0.0
14/09:30am 26.7 24.7 13.8 45 7.6 E 17 26 9 14 1018.1 1018.0 0.0
14/09:00am 26.2 25.6 14.6 48 6.9 ESE 11 24 6 13 1018.2 1018.1 0.0
14/08:30am 25.6 25.1 15.9 55 5.9 E 13 22 7 12 1018.2 1018.1 0.0
14/08:00am 25.2 25.5 17.1 60 5.0 ESE 11 17 6 9 1018.0 1017.9 0.0
14/07:30am 24.7 25.7 18.6 69 3.9 E 11 20 6 11 1017.9 1017.8 0.0
14/07:00am 24.1 25.9 19.6 76 2.9 E 9 17 5 9 1017.6 1017.5 0.0
14/06:30am 24.0 26.2 20.5 81 2.3 E 9 15 5 8 1017.2 1017.1 0.0
14/06:00am 22.2 24.6 18.8 81 2.1 ESE 4 9 2 5 1016.9 1016.8 0.0
14/05:30am 22.5 24.9 18.7 79 2.4 ESE 4 9 2 5 1016.6 1016.5 0.0
14/05:00am 22.6 24.3 18.6 78 2.5 ESE 7 9 4 5 1016.4 1016.3 0.0
14/04:30am 22.1 23.7 17.9 77 2.6 SE 6 9 3 5 1016.2 1016.1 0.0
14/04:00am 21.1 22.3 16.9 77 2.6 SE 6 7 3 4 1015.9 1015.8 0.0
14/03:30am 20.5 21.7 16.9 80 2.2 SSE 6 6 3 3 1015.8 1015.7 0.0
14/03:00am 20.6 21.8 16.8 79 2.3 S 6 6 3 3 1015.8 1015.7 0.0
14/02:30am 21.1 22.2 16.7 76 2.7 SSE 6 6 3 3 1015.8 1015.7 0.0
14/02:00am 21.7 23.2 16.6 73 3.1 SSE 4 6 2 3 1016.2 1016.1 0.0
14/01:30am 22.9 24.3 17.4 71 3.4 ESE 6 9 3 5 1016.5 1016.4 0.0
14/01:00am 22.5 23.6 17.2 72 3.3 E 7 13 4 7 1016.6 1016.5 0.0
14/12:30am 22.5 22.9 16.3 68 3.8 S 9 11 5 6 1016.3 1016.2 0.0
14/12:00am 22.8 23.3 16.6 68 3.8 S 9 13 5 7 1016.3 1016.2 0.0
 
Date/Time
CST
Temp
°C
App
Temp
°C
Dew
Point
°C
Rel
Hum
%
Delta-T
°C
Wind Press
QNH
hPa
Press
MSL
hPa
Rain since
9am
mm
Dir  Spd
km/h
Gust
km/h
Spd
kts
Gust
kts
13/11:30pm 23.1 23.8 16.2 65 4.2 S 7 11 4 6 1016.2 1016.1 0.0
13/11:00pm 23.1 23.0 14.9 60 4.9 S 9 13 5 7 1016.0 1015.9 0.0
13/10:30pm 23.4 23.2 14.7 58 5.2 S 9 13 5 7 1016.0 1015.9 0.0
13/10:00pm 23.5 23.8 16.1 63 4.5 S 9 15 5 8 1015.8 1015.7 0.0
13/09:30pm 24.2 25.1 16.7 63 4.6 SSW 7 11 4 6 1015.4 1015.3 0.0
13/09:00pm 26.8 28.1 17.6 57 5.8 NE 7 13 4 7 1015.1 1015.0 0.0
13/08:30pm 27.0 27.7 18.0 58 5.7 NNE 11 15 6 8 1014.8 1014.7 0.0
13/08:00pm 27.1 27.7 17.8 56 5.9 NNE 11 15 6 8 1014.6 1014.5 0.0
13/07:30pm 27.1 27.8 17.0 54 6.3 NNE 9 15 5 8 1014.3 1014.2 0.0
13/07:00pm 27.1 27.4 17.0 54 6.3 NNE 11 15 6 8 1014.1 1014.0 0.0
13/06:30pm 27.3 26.8 16.0 50 6.9 NNE 13 17 7 9 1013.8 1013.7 0.0
13/06:00pm 27.6 26.9 15.3 47 7.5 NNE 13 19 7 10 1013.7 1013.6 0.0
13/05:30pm 27.8 26.9 14.8 45 7.9 NNE 13 19 7 10 1013.6 1013.5 0.0
13/05:00pm 27.7 25.7 14.0 43 8.2 NNE 17 22 9 12 1013.8 1013.7 0.0
13/04:30pm 27.8 25.7 13.7 42 8.4 NNE 17 24 9 13 1013.8 1013.7 0.0
13/04:00pm 28.1 24.7 13.6 41 8.6 NNE 24 32 13 17 1014.0 1013.9 0.0
13/03:30pm 27.8 24.8 14.8 45 7.9 NNE 24 33 13 18 1014.2 1014.1 0.0
13/03:00pm 27.8 25.3 16.1 49 7.2 NE 24 33 13 18 1014.3 1014.2 0.0
13/02:30pm 27.8 24.9 15.1 46 7.7 NE 24 35 13 19 1014.9 1014.8 0.0
13/02:00pm 27.9 23.8 13.8 42 8.4 NE 28 43 15 23 1015.0 1014.9 0.0
13/01:55pm 28.0 23.2 11.5 35 9.5 NE 28 43 15 23 1015.3 1015.2 0.0
13/01:30pm 31.5 28.0 7.2 22 13.2 E 15 22 8 12 1015.6 1015.5 0.0
13/01:00pm 31.0 26.5 6.1 21 13.3 E 19 32 10 17 1016.0 1015.9 0.0
13/12:30pm 29.8 27.1 10.4 30 11.0 ENE 15 24 8 13 1016.6 1016.5 0.0
13/12:00pm 30.2 26.3 8.6 26 11.9 E 19 32 10 17 1017.1 1017.0 0.0
13/11:30am 29.6 25.4 7.5 25 11.9 ESE 19 35 10 19 1017.7 1017.6 0.0
13/11:00am 28.8 24.5 7.9 27 11.3 ESE 20 37 11 20 1018.0 1017.9 0.0
13/10:30am 28.1 25.6 11.2 35 9.6 ESE 15 28 8 15 1018.3 1018.2 0.0
13/10:00am 26.8 25.7 14.2 46 7.5 E 13 22 7 12 1018.4 1018.3 0.0

Other formats

Comma delimited format used in spreadsheet applications
http://www.bom.gov.au/fwo/IDD60801/IDD60801.99510.axf

JavaScript Object Notation format (JSON) in row-major order
http://www.bom.gov.au/fwo/IDD60801/IDD60801.99510.json

Data quality

Most of these data are generated automatically and are frequently updated. Quality checks on data are not normally performed. It is possible for incorrect values to appear. Refer to information at About Latest Weather Observations and please check the disclaimer before using these data.